createdAt,value
2022-08-02T00:02:47.691Z,19.50
2022-08-02T00:05:33.851Z,19.40
2022-08-02T00:08:20.568Z,19.30
2022-08-02T00:11:06.843Z,19.20
2022-08-02T00:13:54.897Z,19.10
2022-08-02T00:16:41.547Z,19.10
2022-08-02T00:19:27.918Z,19.00
2022-08-02T00:22:14.867Z,18.90
2022-08-02T00:25:01.836Z,18.70
2022-08-02T00:27:48.061Z,18.80
2022-08-02T00:30:35.626Z,18.80
2022-08-02T00:34:27.065Z,18.90
2022-08-02T00:36:28.769Z,19.00
2022-08-02T00:39:33.614Z,19.00
2022-08-02T00:42:22.085Z,19.00
2022-08-02T00:45:09.713Z,18.80
2022-08-02T00:47:57.670Z,18.70
2022-08-02T00:50:43.995Z,18.60
2022-08-02T00:53:30.852Z,18.50
2022-08-02T00:56:17.349Z,18.40
2022-08-02T00:59:04.707Z,18.40
2022-08-02T01:01:56.102Z,18.20
2022-08-02T01:04:45.737Z,18.20
2022-08-02T01:07:31.966Z,18.10
2022-08-02T01:10:18.469Z,18.10
2022-08-02T01:13:04.707Z,18.10
2022-08-02T01:16:03.030Z,18.10
2022-08-02T01:18:54.606Z,18.10
2022-08-02T01:21:55.723Z,18.10
2022-08-02T01:25:14.252Z,18.00
2022-08-02T01:28:16.676Z,18.00
2022-08-02T01:31:10.978Z,18.10
2022-08-02T01:34:02.519Z,18.20
2022-08-02T01:36:54.993Z,18.20
2022-08-02T01:39:44.184Z,18.10
2022-08-02T01:42:32.433Z,18.20
2022-08-02T01:45:21.960Z,18.30
2022-08-02T01:48:10.393Z,18.10
2022-08-02T01:50:59.065Z,18.10
2022-08-02T01:53:49.355Z,18.00
2022-08-02T01:56:36.941Z,18.00
2022-08-02T01:59:24.926Z,18.00
2022-08-02T02:02:14.368Z,18.10
2022-08-02T02:05:02.952Z,18.10
2022-08-02T02:07:52.187Z,18.10
2022-08-02T02:10:41.022Z,18.20
2022-08-02T02:13:33.800Z,18.20
2022-08-02T02:16:22.340Z,18.20
2022-08-02T02:19:11.613Z,18.20
2022-08-02T02:21:58.709Z,18.20
2022-08-02T02:24:46.022Z,18.10
2022-08-02T02:27:34.915Z,18.10
2022-08-02T02:30:26.915Z,18.00
2022-08-02T02:33:17.996Z,17.90
2022-08-02T02:36:09.084Z,18.00
2022-08-02T02:38:57.735Z,18.00
2022-08-02T02:41:45.422Z,18.00
2022-08-02T02:44:34.088Z,18.00
2022-08-02T02:47:20.992Z,18.00
2022-08-02T02:50:08.629Z,17.80
2022-08-02T02:52:56.886Z,17.80
2022-08-02T02:56:01.791Z,17.80
2022-08-02T02:58:49.591Z,18.00
2022-08-02T03:01:55.323Z,18.00
2022-08-02T03:04:55.563Z,18.10
2022-08-02T03:07:44.280Z,18.10
2022-08-02T03:10:32.154Z,18.10
2022-08-02T03:13:19.566Z,18.00
2022-08-02T03:16:07.224Z,18.00
2022-08-02T03:18:53.566Z,18.00
2022-08-02T03:21:40.207Z,17.80
2022-08-02T03:24:27.794Z,17.80
2022-08-02T03:27:16.364Z,17.80
2022-08-02T03:30:02.832Z,17.80
2022-08-02T03:32:50.017Z,17.80
2022-08-02T03:35:36.902Z,17.80
2022-08-02T03:38:28.813Z,17.90
2022-08-02T03:41:18.602Z,18.00
2022-08-02T03:44:07.941Z,17.90
2022-08-02T03:46:54.999Z,17.80
2022-08-02T03:49:42.408Z,17.70
2022-08-02T03:52:30.445Z,17.80
2022-08-02T03:55:16.897Z,17.90
2022-08-02T03:58:03.400Z,18.00
2022-08-02T04:00:54.877Z,18.00
2022-08-02T04:03:41.386Z,18.00
2022-08-02T04:06:28.550Z,18.10
2022-08-02T04:09:15.311Z,18.10
2022-08-02T04:12:01.938Z,18.10
2022-08-02T04:14:48.364Z,18.20
2022-08-02T04:17:40.106Z,18.20
2022-08-02T04:20:32.518Z,18.30
2022-08-02T04:23:19.397Z,18.20
2022-08-02T04:26:07.885Z,18.20
2022-08-02T04:28:58.395Z,18.30
2022-08-02T04:31:45.179Z,18.30
2022-08-02T04:34:33.186Z,18.40
2022-08-02T04:37:19.722Z,18.40
2022-08-02T04:40:10.802Z,18.50
2022-08-02T04:42:57.122Z,18.50
2022-08-02T04:45:45.511Z,18.60
2022-08-02T04:48:32.373Z,18.70
2022-08-02T04:51:19.967Z,18.90
2022-08-02T04:54:09.850Z,19.20
2022-08-02T04:56:57.013Z,19.50
2022-08-02T04:59:43.402Z,19.60
2022-08-02T05:02:29.619Z,19.90
2022-08-02T05:05:16.124Z,19.90
2022-08-02T05:08:04.242Z,20.20
2022-08-02T05:10:50.773Z,20.40
2022-08-02T05:13:58.038Z,20.60
2022-08-02T05:16:43.721Z,20.60
2022-08-02T05:19:30.180Z,20.60
2022-08-02T05:22:16.435Z,20.60
2022-08-02T05:25:04.210Z,20.70
2022-08-02T05:27:50.476Z,20.80
2022-08-02T05:30:37.155Z,21.00
2022-08-02T05:33:23.368Z,21.40
2022-08-02T05:36:10.223Z,22.00
2022-08-02T05:39:04.654Z,22.20
2022-08-02T05:41:52.811Z,22.30
2022-08-02T05:44:38.943Z,22.10
2022-08-02T05:47:25.935Z,22.10
2022-08-02T05:50:12.730Z,22.30
2022-08-02T05:53:05.187Z,22.60
2022-08-02T05:55:58.672Z,23.20
2022-08-02T05:58:52.293Z,23.70
2022-08-02T06:01:41.602Z,24.20
2022-08-02T06:04:33.505Z,24.70
2022-08-02T06:07:21.783Z,25.70
2022-08-02T06:10:09.879Z,26.30
2022-08-02T06:13:07.081Z,26.60
2022-08-02T06:15:58.208Z,27.00
2022-08-02T06:18:45.351Z,26.90
2022-08-02T06:22:32.542Z,27.00
2022-08-02T06:24:38.059Z,26.90
2022-08-02T06:27:28.223Z,27.00
2022-08-02T06:30:15.234Z,27.90
2022-08-02T06:33:03.002Z,28.00
2022-08-02T06:35:58.901Z,27.50
2022-08-02T06:38:56.174Z,26.90
2022-08-02T06:41:45.433Z,26.60
2022-08-02T06:47:38.243Z,25.60
2022-08-02T06:50:26.014Z,26.60
2022-08-02T06:53:13.035Z,27.30
2022-08-02T06:55:59.673Z,27.60
2022-08-02T06:58:45.910Z,27.70
2022-08-02T07:01:38.779Z,28.00
2022-08-02T07:04:25.718Z,27.80
2022-08-02T07:07:13.710Z,28.20
2022-08-02T07:10:01.859Z,28.90
2022-08-02T07:12:48.551Z,29.40
2022-08-02T07:15:34.911Z,29.80
2022-08-02T07:18:21.690Z,30.20
2022-08-02T07:21:08.799Z,30.30
2022-08-02T07:23:56.820Z,29.80
2022-08-02T07:27:01.767Z,29.50
2022-08-02T07:29:49.801Z,29.30
2022-08-02T07:32:36.504Z,29.00
2022-08-02T07:35:23.609Z,29.00
2022-08-02T07:38:12.941Z,29.00
2022-08-02T07:41:02.144Z,29.00
2022-08-02T07:43:48.455Z,28.90
2022-08-02T07:46:34.800Z,29.10
2022-08-02T07:49:21.049Z,29.30
2022-08-02T07:52:07.661Z,29.00
2022-08-02T07:54:53.875Z,28.90
2022-08-02T07:57:46.119Z,28.80
2022-08-02T08:00:33.685Z,28.80
2022-08-02T08:03:20.235Z,29.10
2022-08-02T08:06:06.705Z,29.20
2022-08-02T08:08:53.116Z,28.90
2022-08-02T08:11:39.566Z,28.30
2022-08-02T08:14:27.427Z,28.00
2022-08-02T08:17:14.315Z,28.60
2022-08-02T08:20:00.695Z,28.80
2022-08-02T08:22:47.815Z,29.10
2022-08-02T08:25:39.775Z,29.20
2022-08-02T08:28:28.162Z,29.50
2022-08-02T08:31:16.038Z,29.50
2022-08-02T08:34:02.522Z,29.60
2022-08-02T08:36:49.170Z,29.60
2022-08-02T08:39:35.554Z,29.50
2022-08-02T08:42:42.063Z,29.10
2022-08-02T08:45:28.463Z,29.00
2022-08-02T08:48:25.796Z,29.50
2022-08-02T08:51:22.336Z,29.80
2022-08-02T08:54:13.662Z,30.00
2022-08-02T08:57:01.214Z,30.30
2022-08-02T08:59:48.120Z,30.30
2022-08-02T09:02:36.002Z,30.00
2022-08-02T09:05:24.233Z,29.90
2022-08-02T09:08:16.374Z,29.90
2022-08-02T09:11:12.798Z,29.70
2022-08-02T09:14:01.062Z,29.80
2022-08-02T09:16:47.592Z,29.90
2022-08-02T09:19:34.608Z,30.10
2022-08-02T09:22:22.326Z,30.40
2022-08-02T09:25:16.966Z,30.90
2022-08-02T09:28:05.353Z,31.20
2022-08-02T09:30:52.068Z,30.50
2022-08-02T09:33:39.624Z,30.30
2022-08-02T09:36:28.109Z,30.20
2022-08-02T09:39:17.426Z,30.20
2022-08-02T09:42:11.461Z,30.10
2022-08-02T09:45:00.223Z,30.30
2022-08-02T09:47:50.892Z,30.30
2022-08-02T09:50:41.962Z,29.90
2022-08-02T09:53:28.870Z,29.80
2022-08-02T09:56:30.274Z,30.00
2022-08-02T09:59:25.481Z,30.40
2022-08-02T10:02:17.055Z,30.80
2022-08-02T10:05:04.418Z,31.20
2022-08-02T10:07:51.133Z,31.60
2022-08-02T10:10:37.938Z,31.60
2022-08-02T10:13:26.008Z,31.60
2022-08-02T10:16:13.278Z,31.50
2022-08-02T10:19:02.130Z,31.60
2022-08-02T10:21:56.574Z,31.40
2022-08-02T10:24:48.058Z,31.60
2022-08-02T10:28:03.684Z,31.70
2022-08-02T10:30:49.777Z,31.70
2022-08-02T10:33:39.226Z,31.70
2022-08-02T10:36:27.528Z,31.20
2022-08-02T10:39:14.286Z,30.70
2022-08-02T10:42:00.769Z,30.60
2022-08-02T10:44:47.495Z,30.70
2022-08-02T10:47:35.446Z,30.60
2022-08-02T10:50:22.188Z,30.60
2022-08-02T10:56:14.884Z,30.00
2022-08-02T10:59:26.190Z,30.00
2022-08-02T11:02:14.062Z,29.90
2022-08-02T11:05:11.714Z,29.60
2022-08-02T11:07:58.980Z,29.50
2022-08-02T11:10:46.009Z,29.40
2022-08-02T11:13:32.319Z,29.40
2022-08-02T11:19:07.142Z,29.10
2022-08-02T11:22:03.406Z,28.80
2022-08-02T11:24:49.982Z,28.60
2022-08-02T11:27:36.864Z,28.50
2022-08-02T11:30:26.514Z,28.50
2022-08-02T11:33:13.292Z,28.40
2022-08-02T11:36:06.605Z,28.40
2022-08-02T11:39:09.964Z,28.30
2022-08-02T11:41:58.712Z,28.30
2022-08-02T11:44:46.652Z,28.20
2022-08-02T11:47:33.152Z,28.00
2022-08-02T11:50:29.795Z,27.80
2022-08-02T11:53:17.722Z,27.70
2022-08-02T11:56:05.972Z,27.60
2022-08-02T11:59:03.025Z,27.50
2022-08-02T12:01:49.941Z,27.50
2022-08-02T12:04:36.744Z,27.40
2022-08-02T12:07:35.345Z,27.50
2022-08-02T12:10:25.339Z,27.50
2022-08-02T12:13:13.373Z,27.40
2022-08-02T12:16:19.723Z,27.30
2022-08-02T12:19:20.301Z,27.20
2022-08-02T12:22:12.399Z,27.10
2022-08-02T12:24:59.374Z,27.00
2022-08-02T12:27:45.671Z,27.00
2022-08-02T12:30:54.942Z,27.00
2022-08-02T12:33:49.014Z,27.10
2022-08-02T12:36:35.581Z,27.10
2022-08-02T12:39:22.157Z,27.00
2022-08-02T12:42:10.732Z,27.00
2022-08-02T12:44:59.458Z,26.90
2022-08-02T12:47:48.970Z,26.80
2022-08-02T12:50:37.595Z,26.80
2022-08-02T12:53:33.942Z,26.90
2022-08-02T12:56:29.288Z,26.90
2022-08-02T12:59:16.583Z,26.90
2022-08-02T13:02:04.970Z,26.90
2022-08-02T13:04:52.971Z,26.90
2022-08-02T13:07:39.186Z,26.90
2022-08-02T13:10:26.729Z,26.90
2022-08-02T13:13:13.421Z,26.70
2022-08-02T13:15:59.950Z,26.80
2022-08-02T13:18:46.943Z,26.80
2022-08-02T13:21:41.677Z,26.90
2022-08-02T13:24:56.568Z,27.00
2022-08-02T13:27:43.974Z,27.10
2022-08-02T13:30:30.279Z,27.00
2022-08-02T13:33:17.724Z,27.00
2022-08-02T13:36:04.831Z,27.00
2022-08-02T13:38:57.288Z,27.00
2022-08-02T13:41:43.445Z,27.10
2022-08-02T13:44:29.886Z,27.30
2022-08-02T13:47:36.506Z,27.50
2022-08-02T13:50:25.607Z,27.60
2022-08-02T13:53:15.589Z,27.70
2022-08-02T13:56:03.212Z,27.80
2022-08-02T13:58:49.513Z,27.90
2022-08-02T14:01:36.345Z,28.00
2022-08-02T14:04:23.403Z,28.00
2022-08-02T14:07:09.915Z,28.10
2022-08-02T14:09:56.284Z,28.10
2022-08-02T14:12:43.995Z,28.10
2022-08-02T14:15:30.437Z,28.00
2022-08-02T14:18:17.503Z,28.00
2022-08-02T14:21:04.332Z,28.10
2022-08-02T14:23:51.170Z,28.00
2022-08-02T14:26:37.889Z,28.10
2022-08-02T14:29:25.778Z,28.10
2022-08-02T14:32:12.318Z,28.10
2022-08-02T14:34:59.161Z,28.10
2022-08-02T14:37:45.457Z,28.10
2022-08-02T14:40:32.202Z,28.10
2022-08-02T14:43:32.841Z,28.10
2022-08-02T14:46:20.484Z,28.20
2022-08-02T14:49:07.752Z,28.20
2022-08-02T14:51:54.664Z,28.20
2022-08-02T14:54:43.007Z,28.30
2022-08-02T14:57:29.557Z,28.30
2022-08-02T15:00:17.747Z,28.20
2022-08-02T15:03:05.341Z,28.10
2022-08-02T15:05:55.613Z,28.00
2022-08-02T15:08:41.745Z,28.10
2022-08-02T15:11:28.168Z,28.00
2022-08-02T15:14:15.013Z,27.90
2022-08-02T15:17:01.307Z,27.90
2022-08-02T15:19:57.651Z,27.80
2022-08-02T15:22:49.366Z,27.80
2022-08-02T15:25:41.355Z,27.70
2022-08-02T15:28:29.571Z,27.70
2022-08-02T15:31:22.623Z,27.60
2022-08-02T15:34:20.219Z,27.60
2022-08-02T15:37:07.818Z,27.60
2022-08-02T15:39:54.142Z,27.60
2022-08-02T15:42:41.098Z,27.70
2022-08-02T15:45:27.881Z,27.80
2022-08-02T15:48:14.358Z,27.90
2022-08-02T15:51:01.521Z,28.00
2022-08-02T15:53:49.616Z,28.10
2022-08-02T15:56:36.225Z,28.20
2022-08-02T15:59:22.993Z,28.30
2022-08-02T16:02:09.549Z,28.30
2022-08-02T16:04:56.070Z,28.30
2022-08-02T16:07:42.383Z,28.20
2022-08-02T16:10:30.294Z,28.10
2022-08-02T16:13:37.273Z,27.90
2022-08-02T16:16:28.099Z,27.90
2022-08-02T16:19:45.908Z,27.80
2022-08-02T16:22:21.002Z,27.70
2022-08-02T16:25:09.857Z,27.70
2022-08-02T16:28:06.884Z,27.70
2022-08-02T16:31:10.135Z,27.70
2022-08-02T16:33:57.537Z,27.70
2022-08-02T16:36:44.353Z,27.60
2022-08-02T16:39:30.652Z,27.50
2022-08-02T16:42:24.985Z,27.50
2022-08-02T16:45:14.076Z,27.40
2022-08-02T16:48:05.234Z,27.30
2022-08-02T16:50:52.441Z,27.20
2022-08-02T16:56:47.566Z,27.10
2022-08-02T16:59:42.663Z,27.10
2022-08-02T17:02:32.255Z,27.10
2022-08-02T17:05:18.796Z,27.10
2022-08-02T17:08:17.359Z,27.10
2022-08-02T17:11:04.234Z,27.20
2022-08-02T17:13:50.908Z,27.30
2022-08-02T17:16:37.623Z,27.30
2022-08-02T17:19:27.996Z,27.40
2022-08-02T17:22:21.769Z,27.40
2022-08-02T17:25:11.996Z,27.40
2022-08-02T17:27:58.674Z,27.50
2022-08-02T17:30:45.203Z,27.40
2022-08-02T17:33:31.938Z,27.30
2022-08-02T17:36:19.609Z,27.20
2022-08-02T17:39:07.139Z,27.10
2022-08-02T17:41:53.859Z,26.90
2022-08-02T17:44:40.205Z,26.80
2022-08-02T17:47:30.954Z,26.60
2022-08-02T17:50:17.532Z,26.60
2022-08-02T17:53:08.445Z,26.50
2022-08-02T17:55:54.736Z,26.30
2022-08-02T17:58:51.843Z,26.20
2022-08-02T18:01:49.213Z,26.10
2022-08-02T18:04:40.020Z,26.10
2022-08-02T18:07:26.591Z,26.00
2022-08-02T18:10:34.489Z,25.90
2022-08-02T18:13:20.922Z,25.90
2022-08-02T18:16:21.404Z,25.80
2022-08-02T18:19:16.663Z,25.70
2022-08-02T18:22:03.918Z,25.70
2022-08-02T18:24:52.211Z,25.60
2022-08-02T18:27:40.122Z,25.50
2022-08-02T18:30:28.389Z,25.50
2022-08-02T18:33:55.501Z,25.40
2022-08-02T18:36:24.553Z,25.40
2022-08-02T18:39:11.659Z,25.30
2022-08-02T18:42:03.501Z,25.30
2022-08-02T18:44:51.257Z,25.20
2022-08-02T18:47:38.755Z,25.10
2022-08-02T18:50:25.248Z,25.10
2022-08-02T18:53:16.910Z,25.00
2022-08-02T18:56:24.794Z,24.90
2022-08-02T18:59:11.647Z,24.90
2022-08-02T19:04:46.956Z,24.70
2022-08-02T19:07:50.380Z,24.60
2022-08-02T19:10:49.007Z,24.50
2022-08-02T19:13:42.265Z,24.50
2022-08-02T19:16:37.304Z,24.40
2022-08-02T19:19:29.151Z,24.40
2022-08-02T19:22:20.054Z,24.30
2022-08-02T19:25:16.017Z,24.30
2022-08-02T19:28:03.574Z,24.20
2022-08-02T19:30:50.908Z,24.10
2022-08-02T19:34:06.587Z,24.10
2022-08-02T19:36:46.063Z,24.00
2022-08-02T19:39:32.888Z,23.90
2022-08-02T19:42:25.644Z,23.90
2022-08-02T19:45:13.900Z,23.90
2022-08-02T19:48:05.365Z,23.80
2022-08-02T19:50:56.221Z,23.70
2022-08-02T19:56:35.684Z,23.60
2022-08-02T19:59:23.541Z,23.50
2022-08-02T20:02:18.358Z,23.50
2022-08-02T20:05:08.170Z,23.60
2022-08-02T20:08:03.019Z,23.40
2022-08-02T20:10:52.879Z,23.40
2022-08-02T20:13:47.040Z,23.30
2022-08-02T20:16:35.318Z,23.30
2022-08-02T20:19:21.934Z,23.30
2022-08-02T20:22:08.916Z,23.30
